KSPB

Scappoose Industrial Airpark

Scappoose, Oregon, USA
METAR KSPB 151853Z AUTO 17004KT 10SM -RA BKN017 OVC043 07/03 A2967 RMK AO2 RAB1757 SLP047 P0000 T00670033
Observed Flight Rules
Feb-15 @ 18:53 UTC (14 minutes ago) Marginal Visual Flight Rules
Wind Visibility Clouds Conditions
170° at 4 knots 10 miles
  • Broken at 1,700' AGL
  • Overcast at 4,300' AGL
  • Light Rain
Temperatures Readings Precipitation
Current 7°C / 45°F
Dewpoint 3°C / 37°F
Humidity 76%
Altimeter 29.67" Hg
Pressure 1004.7 hPa
Elevation 14
Current Rain 0.01
METAR KSPB 151853Z AUTO 17004KT 10SM -RA BKN017 OVC043 07/03 A2967 RMK AO2 RAB1757 SLP047 P0000 T00670033
Observed Flight Rules
Feb-15 @ 18:53 UTC
(14 minutes ago)
MVFR
Wind Visibility
170° at 4 knots 10 miles
Clouds
  • Broken at 1,700' AGL
  • Overcast at 4,300' AGL
Conditions
  • Light Rain
Temperature Dewpoint
7°C / 45°F 3°C / 37°F
Humidity Altimeter Pressure
76% 29.67" Hg 1004.7 hPa
Current Rain
0.01